Sankoumaru 31 — JD2200 — position and weather

sailwx.info

Track history (hours):
 
Tides and Currents Weather Stations Pressure Air Temp Water Temp Dewpoint Dewpoint Depression Visibility Wind Speed Wind Dir Waves Ship Positions

Sankoumaru 31

Last reported at 2015-Aug-26 13:30 UTC. Time now 2015-Aug-31 10:55 UTC.
Position N 34°02' E 135°02'.

Length 75 m; draft 5 m.

Type: Cargo ship. MMSI: 431501842.

Date/timePositionNaut miles runAvg speedWind from/ knotsBaromVisibWave heightAir tempDewpointWater temp
2015-Aug-26 13:30N 34°02' E 135°02'1010.9
2015-Aug-26 12:33N 34°13' E 135°03'1211.6
2015-Aug-26 11:30N 34°24' E 135°09'1111.0
2015-Aug-26 10:32N 34°31' E 135°18'5 0.3
2015-Aug-25 18:15N 34°31' E 135°24'0 0.0
2015-Aug-25 17:28N 34°31' E 135°24'0 0.0
2015-Aug-25 00:33N 34°31' E 135°24'0 0.0
2015-Aug-24 19:27N 34°31' E 135°24'0 0.0
2015-Aug-24 17:33N 34°31' E 135°24'0 0.0
2015-Aug-24 16:21N 34°31' E 135°24'0 0.0
2015-Aug-24 15:27N 34°31' E 135°24'0 0.0
2015-Aug-24 14:33N 34°31' E 135°24'0 0.0
2015-Aug-24 11:09N 34°31' E 135°24'0 0.0
2015-Aug-23 21:32N 34°31' E 135°24'2 1.5
2015-Aug-23 20:31N 34°32' E 135°23'0 0.0
2015-Aug-23 19:31N 34°32' E 135°23'0 0.0
2015-Aug-23 18:31N 34°32' E 135°23'0 0.0
2015-Aug-23 17:31N 34°32' E 135°23'0 0.0
2015-Aug-23 16:19N 34°32' E 135°23'0 0.0
2015-Aug-23 15:31N 34°32' E 135°23'0 0.0
2015-Aug-23 14:19N 34°32' E 135°23'0 0.1
2015-Aug-23 13:31N 34°32' E 135°23'0 0.0
2015-Aug-23 12:25N 34°32' E 135°23'0 0.0
2015-Aug-23 11:31N 34°32' E 135°23'0 0.0
2015-Aug-23 10:25N 34°32' E 135°23'0 0.0
2015-Aug-23 09:25N 34°32' E 135°23'0 0.0
2015-Aug-23 07:07N 34°32' E 135°23'0 0.0
2015-Aug-23 06:19N 34°32' E 135°23'1 0.2
2015-Aug-23 02:30N 34°31' E 135°24'1010.1
2015-Aug-23 01:33N 34°34' E 135°13'  
2015-Aug-19 13:17N 34°12' E 134°54'912.6
2015-Aug-19 12:34N 34°14' E 135°04'2 0.4
2015-Aug-19 06:07N 34°15' E 135°07'1 1.2
2015-Aug-19 05:33N 34°14' E 135°06'0 0.3
2015-Aug-19 04:32N 34°15' E 135°06'0 0.0
2015-Aug-19 03:29N 34°15' E 135°06'0 0.0
2015-Aug-19 02:32N 34°15' E 135°06'0 0.0
2015-Aug-19 01:32N 34°15' E 135°06'0 0.0
2015-Aug-19 00:29N 34°15' E 135°06'0 0.0
2015-Aug-18 23:32N 34°15' E 135°06'0 0.0
2015-Aug-18 22:32N 34°15' E 135°06'0 0.1
2015-Aug-18 21:32N 34°15' E 135°06'0 0.0
2015-Aug-18 20:32N 34°15' E 135°06'0 0.1
2015-Aug-18 19:29N 34°15' E 135°06'0 0.0
2015-Aug-18 18:23N 34°15' E 135°06'0 0.0
2015-Aug-18 17:32N 34°15' E 135°06'0 0.0
2015-Aug-18 16:32N 34°15' E 135°06'0 0.0
2015-Aug-18 15:29N 34°15' E 135°06'0 0.0
2015-Aug-18 14:29N 34°15' E 135°06'0 0.1
2015-Aug-18 13:26N 34°15' E 135°06'0 0.0
2015-Aug-18 12:32N 34°15' E 135°06'0 0.0
2015-Aug-18 11:32N 34°15' E 135°06'3 3.2
2015-Aug-18 10:33N 34°12' E 135°05'  
Track history (hours):
 
Tides and Currents Weather Stations Pressure Air Temp Water Temp Dewpoint Dewpoint Depression Visibility Wind Speed Wind Dir Waves Ship Positions

Sankoumaru 31

Last reported at 2015-Aug-26 13:30 UTC. Time now 2015-Aug-31 10:55 UTC.
Position N 34°02' E 135°02'.

Length 75 m; draft 5 m.

Type: Cargo ship. MMSI: 431501842.

Date/timePositionNaut miles runAvg speedWind from/ knotsBaromVisibWave heightAir tempDewpointWater temp
2015-Aug-26 13:30N 34°02' E 135°02'1010.9
2015-Aug-26 12:33N 34°13' E 135°03'1211.6
2015-Aug-26 11:30N 34°24' E 135°09'1111.0
2015-Aug-26 10:32N 34°31' E 135°18'5 0.3
2015-Aug-25 18:15N 34°31' E 135°24'0 0.0
2015-Aug-25 17:28N 34°31' E 135°24'0 0.0
2015-Aug-25 00:33N 34°31' E 135°24'0 0.0
2015-Aug-24 19:27N 34°31' E 135°24'0 0.0
2015-Aug-24 17:33N 34°31' E 135°24'0 0.0
2015-Aug-24 16:21N 34°31' E 135°24'0 0.0
2015-Aug-24 15:27N 34°31' E 135°24'0 0.0
2015-Aug-24 14:33N 34°31' E 135°24'0 0.0
2015-Aug-24 11:09N 34°31' E 135°24'0 0.0
2015-Aug-23 21:32N 34°31' E 135°24'2 1.5
2015-Aug-23 20:31N 34°32' E 135°23'0 0.0
2015-Aug-23 19:31N 34°32' E 135°23'0 0.0
2015-Aug-23 18:31N 34°32' E 135°23'0 0.0
2015-Aug-23 17:31N 34°32' E 135°23'0 0.0
2015-Aug-23 16:19N 34°32' E 135°23'0 0.0
2015-Aug-23 15:31N 34°32' E 135°23'0 0.0
2015-Aug-23 14:19N 34°32' E 135°23'0 0.1
2015-Aug-23 13:31N 34°32' E 135°23'0 0.0
2015-Aug-23 12:25N 34°32' E 135°23'0 0.0
2015-Aug-23 11:31N 34°32' E 135°23'0 0.0
2015-Aug-23 10:25N 34°32' E 135°23'0 0.0
2015-Aug-23 09:25N 34°32' E 135°23'0 0.0
2015-Aug-23 07:07N 34°32' E 135°23'0 0.0
2015-Aug-23 06:19N 34°32' E 135°23'1 0.2
2015-Aug-23 02:30N 34°31' E 135°24'1010.1
2015-Aug-23 01:33N 34°34' E 135°13'  
2015-Aug-19 13:17N 34°12' E 134°54'912.6
2015-Aug-19 12:34N 34°14' E 135°04'2 0.4
2015-Aug-19 06:07N 34°15' E 135°07'1 1.2
2015-Aug-19 05:33N 34°14' E 135°06'0 0.3
2015-Aug-19 04:32N 34°15' E 135°06'0 0.0
2015-Aug-19 03:29N 34°15' E 135°06'0 0.0
2015-Aug-19 02:32N 34°15' E 135°06'0 0.0
2015-Aug-19 01:32N 34°15' E 135°06'0 0.0
2015-Aug-19 00:29N 34°15' E 135°06'0 0.0
2015-Aug-18 23:32N 34°15' E 135°06'0 0.0
2015-Aug-18 22:32N 34°15' E 135°06'0 0.1
2015-Aug-18 21:32N 34°15' E 135°06'0 0.0
2015-Aug-18 20:32N 34°15' E 135°06'0 0.1
2015-Aug-18 19:29N 34°15' E 135°06'0 0.0
2015-Aug-18 18:23N 34°15' E 135°06'0 0.0
2015-Aug-18 17:32N 34°15' E 135°06'0 0.0
2015-Aug-18 16:32N 34°15' E 135°06'0 0.0
2015-Aug-18 15:29N 34°15' E 135°06'0 0.0
2015-Aug-18 14:29N 34°15' E 135°06'0 0.1
2015-Aug-18 13:26N 34°15' E 135°06'0 0.0
2015-Aug-18 12:32N 34°15' E 135°06'0 0.0
2015-Aug-18 11:32N 34°15' E 135°06'3 3.2
2015-Aug-18 10:33N 34°12' E 135°05'  

Dump ship's entire track history